sensor_id;sensor_type;location;lat;lon;timestamp;temperature;humidity
40589;DHT22;26297;49.450;6.640;2024-01-15T00:02:31;8.60;93.30
40589;DHT22;26297;49.450;6.640;2024-01-15T00:05:34;7.80;92.50
40589;DHT22;26297;49.450;6.640;2024-01-15T00:08:38;8.70;92.30
40589;DHT22;26297;49.450;6.640;2024-01-15T00:11:41;11.20;92.60
40589;DHT22;26297;49.450;6.640;2024-01-15T00:14:44;9.30;92.40
40589;DHT22;26297;49.450;6.640;2024-01-15T00:17:47;10.30;92.60
40589;DHT22;26297;49.450;6.640;2024-01-15T00:20:51;10.20;92.40
40589;DHT22;26297;49.450;6.640;2024-01-15T00:23:54;9.00;93.00
40589;DHT22;26297;49.450;6.640;2024-01-15T00:26:57;8.70;93.00
40589;DHT22;26297;49.450;6.640;2024-01-15T00:30:00;8.60;93.10
40589;DHT22;26297;49.450;6.640;2024-01-15T00:33:03;8.70;92.60
40589;DHT22;26297;49.450;6.640;2024-01-15T00:36:06;8.60;91.70
40589;DHT22;26297;49.450;6.640;2024-01-15T00:39:10;8.50;93.10
40589;DHT22;26297;49.450;6.640;2024-01-15T00:42:13;11.00;92.70
40589;DHT22;26297;49.450;6.640;2024-01-15T00:45:16;8.70;91.80
40589;DHT22;26297;49.450;6.640;2024-01-15T00:48:19;8.70;92.20
40589;DHT22;26297;49.450;6.640;2024-01-15T00:51:22;9.10;92.40
40589;DHT22;26297;49.450;6.640;2024-01-15T00:54:26;9.60;92.80
40589;DHT22;26297;49.450;6.640;2024-01-15T00:57:29;8.90;92.70
40589;DHT22;26297;49.450;6.640;2024-01-15T01:00:32;9.80;93.70
40589;DHT22;26297;49.450;6.640;2024-01-15T01:03:35;8.70;93.10
40589;DHT22;26297;49.450;6.640;2024-01-15T01:06:42;7.20;92.20
40589;DHT22;26297;49.450;6.640;2024-01-15T01:09:45;10.10;93.50
40589;DHT22;26297;49.450;6.640;2024-01-15T01:12:48;8.70;93.60
40589;DHT22;26297;49.450;6.640;2024-01-15T01:15:51;8.60;92.70
40589;DHT22;26297;49.450;6.640;2024-01-15T01:18:54;10.60;93.90
40589;DHT22;26297;49.450;6.640;2024-01-15T01:21:57;9.70;93.40
40589;DHT22;26297;49.450;6.640;2024-01-15T01:25:00;11.20;93.70
40589;DHT22;26297;49.450;6.640;2024-01-15T01:28:03;11.00;93.70
40589;DHT22;26297;49.450;6.640;2024-01-15T01:31:06;8.60;93.40
40589;DHT22;26297;49.450;6.640;2024-01-15T01:34:14;8.60;93.90
40589;DHT22;26297;49.450;6.640;2024-01-15T01:37:18;9.10;93.20
40589;DHT22;26297;49.450;6.640;2024-01-15T01:40:21;6.60;91.80
40589;DHT22;26297;49.450;6.640;2024-01-15T01:43:26;10.20;93.50
40589;DHT22;26297;49.450;6.640;2024-01-15T01:46:33;9.50;93.00
40589;DHT22;26297;49.450;6.640;2024-01-15T01:49:36;8.60;92.50
40589;DHT22;26297;49.450;6.640;2024-01-15T01:52:39;8.70;93.90
40589;DHT22;26297;49.450;6.640;2024-01-15T01:55:43;10.10;93.30
40589;DHT22;26297;49.450;6.640;2024-01-15T01:58:46;9.30;93.20
40589;DHT22;26297;49.450;6.640;2024-01-15T02:01:50;10.50;93.70
40589;DHT22;26297;49.450;6.640;2024-01-15T02:04:53;8.40;92.90
40589;DHT22;26297;49.450;6.640;2024-01-15T02:07:56;10.00;93.50
40589;DHT22;26297;49.450;6.640;2024-01-15T02:10:59;9.60;93.90
40589;DHT22;26297;49.450;6.640;2024-01-15T02:14:02;9.60;93.70
40589;DHT22;26297;49.450;6.640;2024-01-15T02:17:06;10.60;93.30
40589;DHT22;26297;49.450;6.640;2024-01-15T02:20:09;9.20;93.90
40589;DHT22;26297;49.450;6.640;2024-01-15T02:23:12;8.80;93.50
40589;DHT22;26297;49.450;6.640;2024-01-15T02:26:16;9.00;93.50
40589;DHT22;26297;49.450;6.640;2024-01-15T02:29:19;9.00;93.80
40589;DHT22;26297;49.450;6.640;2024-01-15T02:32:22;10.20;93.70
40589;DHT22;26297;49.450;6.640;2024-01-15T02:35:25;10.30;93.70
40589;DHT22;26297;49.450;6.640;2024-01-15T02:38:28;11.10;94.40
40589;DHT22;26297;49.450;6.640;2024-01-15T02:41:31;8.60;93.40
40589;DHT22;26297;49.450;6.640;2024-01-15T02:44:34;9.40;93.60
40589;DHT22;26297;49.450;6.640;2024-01-15T02:47:37;9.20;94.20
40589;DHT22;26297;49.450;6.640;2024-01-15T02:50:41;8.70;93.50
40589;DHT22;26297;49.450;6.640;2024-01-15T02:53:44;8.60;93.40
40589;DHT22;26297;49.450;6.640;2024-01-15T02:56:48;7.90;93.10
40589;DHT22;26297;49.450;6.640;2024-01-15T02:59:51;9.50;94.40
40589;DHT22;26297;49.450;6.640;2024-01-15T03:02:54;8.50;93.70
40589;DHT22;26297;49.450;6.640;2024-01-15T03:05:57;10.60;94.00
40589;DHT22;26297;49.450;6.640;2024-01-15T03:09:00;8.60;94.30
40589;DHT22;26297;49.450;6.640;2024-01-15T03:12:04;9.90;93.90
40589;DHT22;26297;49.450;6.640;2024-01-15T03:15:07;8.60;93.80
40589;DHT22;26297;49.450;6.640;2024-01-15T03:18:10;8.60;94.00
40589;DHT22;26297;49.450;6.640;2024-01-15T03:21:13;9.30;94.30
40589;DHT22;26297;49.450;6.640;2024-01-15T03:24:22;7.40;93.90
40589;DHT22;26297;49.450;6.640;2024-01-15T03:27:25;10.60;94.20
40589;DHT22;26297;49.450;6.640;2024-01-15T03:30:28;9.60;94.80
40589;DHT22;26297;49.450;6.640;2024-01-15T03:33:31;10.20;94.00
40589;DHT22;26297;49.450;6.640;2024-01-15T03:36:34;8.60;93.90
40589;DHT22;26297;49.450;6.640;2024-01-15T03:39:38;9.60;94.70
40589;DHT22;26297;49.450;6.640;2024-01-15T03:42:41;10.90;94.60
40589;DHT22;26297;49.450;6.640;2024-01-15T03:45:44;9.30;95.10
40589;DHT22;26297;49.450;6.640;2024-01-15T03:48:47;10.00;94.10
40589;DHT22;26297;49.450;6.640;2024-01-15T03:51:50;9.40;94.80
40589;DHT22;26297;49.450;6.640;2024-01-15T03:54:53;9.30;94.40
40589;DHT22;26297;49.450;6.640;2024-01-15T03:57:56;10.10;94.90
40589;DHT22;26297;49.450;6.640;2024-01-15T04:00:59;11.10;95.30
40589;DHT22;26297;49.450;6.640;2024-01-15T04:04:02;11.00;94.80
40589;DHT22;26297;49.450;6.640;2024-01-15T04:07:05;8.70;94.40
40589;DHT22;26297;49.450;6.640;2024-01-15T04:10:09;11.20;95.50
40589;DHT22;26297;49.450;6.640;2024-01-15T04:13:12;9.20;95.00
40589;DHT22;26297;49.450;6.640;2024-01-15T04:16:15;10.20;95.00
40589;DHT22;26297;49.450;6.640;2024-01-15T04:19:18;9.80;95.10
40589;DHT22;26297;49.450;6.640;2024-01-15T04:22:21;10.30;95.20
40589;DHT22;26297;49.450;6.640;2024-01-15T04:25:24;10.40;94.90
40589;DHT22;26297;49.450;6.640;2024-01-15T04:28:27;8.70;95.00
40589;DHT22;26297;49.450;6.640;2024-01-15T04:31:30;8.90;95.30
40589;DHT22;26297;49.450;6.640;2024-01-15T04:34:33;9.00;95.00
40589;DHT22;26297;49.450;6.640;2024-01-15T04:37:36;10.70;95.50
40589;DHT22;26297;49.450;6.640;2024-01-15T04:40:39;8.80;95.10
40589;DHT22;26297;49.450;6.640;2024-01-15T04:43:42;8.70;95.00
40589;DHT22;26297;49.450;6.640;2024-01-15T04:46:45;10.90;95.80
40589;DHT22;26297;49.450;6.640;2024-01-15T04:49:48;10.20;95.50
40589;DHT22;26297;49.450;6.640;2024-01-15T04:52:52;8.70;95.20
40589;DHT22;26297;49.450;6.640;2024-01-15T04:55:55;10.50;95.90
40589;DHT22;26297;49.450;6.640;2024-01-15T04:58:58;10.00;95.50
40589;DHT22;26297;49.450;6.640;2024-01-15T05:02:01;8.50;95.40
40589;DHT22;26297;49.450;6.640;2024-01-15T05:05:04;8.70;95.00
40589;DHT22;26297;49.450;6.640;2024-01-15T05:08:07;8.70;95.60
40589;DHT22;26297;49.450;6.640;2024-01-15T05:11:10;7.20;94.90
40589;DHT22;26297;49.450;6.640;2024-01-15T05:14:13;8.70;95.40
40589;DHT22;26297;49.450;6.640;2024-01-15T05:17:16;8.90;95.30
40589;DHT22;26297;49.450;6.640;2024-01-15T05:20:19;10.20;95.90
40589;DHT22;26297;49.450;6.640;2024-01-15T05:23:23;10.70;95.80
40589;DHT22;26297;49.450;6.640;2024-01-15T05:26:26;9.90;96.00
40589;DHT22;26297;49.450;6.640;2024-01-15T05:29:29;10.10;95.60
40589;DHT22;26297;49.450;6.640;2024-01-15T05:32:35;10.60;96.30
40589;DHT22;26297;49.450;6.640;2024-01-15T05:35:38;8.80;95.50
40589;DHT22;26297;49.450;6.640;2024-01-15T05:38:41;9.40;95.80
40589;DHT22;26297;49.450;6.640;2024-01-15T05:41:44;10.70;96.50
40589;DHT22;26297;49.450;6.640;2024-01-15T05:44:47;9.50;96.30
40589;DHT22;26297;49.450;6.640;2024-01-15T05:47:51;8.70;96.00
40589;DHT22;26297;49.450;6.640;2024-01-15T05:50:54;9.50;96.50
40589;DHT22;26297;49.450;6.640;2024-01-15T05:53:57;6.60;95.60
40589;DHT22;26297;49.450;6.640;2024-01-15T05:57:00;8.90;96.60
40589;DHT22;26297;49.450;6.640;2024-01-15T06:00:03;9.20;96.50
40589;DHT22;26297;49.450;6.640;2024-01-15T06:03:06;8.70;96.10
40589;DHT22;26297;49.450;6.640;2024-01-15T06:06:10;10.90;96.90
40589;DHT22;26297;49.450;6.640;2024-01-15T06:09:28;10.60;97.40
40589;DHT22;26297;49.450;6.640;2024-01-15T06:12:31;8.70;96.60
40589;DHT22;26297;49.450;6.640;2024-01-15T06:15:35;8.70;96.60
40589;DHT22;26297;49.450;6.640;2024-01-15T06:18:38;9.00;97.30
40589;DHT22;26297;49.450;6.640;2024-01-15T06:21:41;9.40;97.70
40589;DHT22;26297;49.450;6.640;2024-01-15T06:24:44;8.60;97.40
40589;DHT22;26297;49.450;6.640;2024-01-15T06:27:50;8.60;97.70
40589;DHT22;26297;49.450;6.640;2024-01-15T06:30:54;10.90;97.90
40589;DHT22;26297;49.450;6.640;2024-01-15T06:34:03;9.80;98.10
40589;DHT22;26297;49.450;6.640;2024-01-15T06:37:06;8.90;97.50
40589;DHT22;26297;49.450;6.640;2024-01-15T06:40:10;11.00;98.30
40589;DHT22;26297;49.450;6.640;2024-01-15T06:43:14;8.60;97.80
40589;DHT22;26297;49.450;6.640;2024-01-15T06:46:22;8.80;97.90
40589;DHT22;26297;49.450;6.640;2024-01-15T06:49:25;8.70;97.70
40589;DHT22;26297;49.450;6.640;2024-01-15T06:52:32;8.80;97.90
40589;DHT22;26297;49.450;6.640;2024-01-15T06:55:35;8.90;98.50
40589;DHT22;26297;49.450;6.640;2024-01-15T06:58:38;8.60;98.50
40589;DHT22;26297;49.450;6.640;2024-01-15T07:01:41;7.10;98.30
40589;DHT22;26297;49.450;6.640;2024-01-15T07:04:44;10.40;98.40
40589;DHT22;26297;49.450;6.640;2024-01-15T07:07:47;9.30;98.70
40589;DHT22;26297;49.450;6.640;2024-01-15T07:10:50;10.30;99.20
40589;DHT22;26297;49.450;6.640;2024-01-15T07:13:53;8.70;99.00
40589;DHT22;26297;49.450;6.640;2024-01-15T07:16:56;10.50;98.80
40589;DHT22;26297;49.450;6.640;2024-01-15T07:19:59;10.40;98.80
40589;DHT22;26297;49.450;6.640;2024-01-15T07:26:59;8.90;98.00
40589;DHT22;26297;49.450;6.640;2024-01-15T07:30:02;8.70;98.50
40589;DHT22;26297;49.450;6.640;2024-01-15T07:33:08;8.90;98.90
40589;DHT22;26297;49.450;6.640;2024-01-15T07:36:17;8.60;98.50
40589;DHT22;26297;49.450;6.640;2024-01-15T07:39:23;9.90;98.60
40589;DHT22;26297;49.450;6.640;2024-01-15T07:42:42;8.70;99.70
40589;DHT22;26297;49.450;6.640;2024-01-15T07:45:57;7.40;97.90
40589;DHT22;26297;49.450;6.640;2024-01-15T07:49:12;7.40;98.40
40589;DHT22;26297;49.450;6.640;2024-01-15T07:52:51;8.60;99.00
40589;DHT22;26297;49.450;6.640;2024-01-15T08:00:07;7.80;98.30
40589;DHT22;26297;49.450;6.640;2024-01-15T08:06:44;6.60;98.00
40589;DHT22;26297;49.450;6.640;2024-01-15T08:10:00;10.60;99.70
40589;DHT22;26297;49.450;6.640;2024-01-15T08:13:16;8.70;98.50
40589;DHT22;26297;49.450;6.640;2024-01-15T08:16:24;8.60;99.20
40589;DHT22;26297;49.450;6.640;2024-01-15T08:19:33;7.00;98.60
40589;DHT22;26297;49.450;6.640;2024-01-15T08:23:03;8.80;99.20
40589;DHT22;26297;49.450;6.640;2024-01-15T08:26:30;9.80;99.90
40589;DHT22;26297;49.450;6.640;2024-01-15T08:29:47;8.00;99.40
40589;DHT22;26297;49.450;6.640;2024-01-15T08:33:09;7.80;98.30
40589;DHT22;26297;49.450;6.640;2024-01-15T08:36:23;7.50;99.20
40589;DHT22;26297;49.450;6.640;2024-01-15T08:50:38;10.80;99.00
40589;DHT22;26297;49.450;6.640;2024-01-15T08:53:56;6.20;98.20
40589;DHT22;26297;49.450;6.640;2024-01-15T09:01:10;8.70;99.10
40589;DHT22;26297;49.450;6.640;2024-01-15T09:04:20;8.30;98.90
40589;DHT22;26297;49.450;6.640;2024-01-15T09:07:26;8.00;99.10
40589;DHT22;26297;49.450;6.640;2024-01-15T09:10:39;9.10;99.90
40589;DHT22;26297;49.450;6.640;2024-01-15T09:17:10;11.30;99.50
40589;DHT22;26297;49.450;6.640;2024-01-15T09:20:23;10.50;99.40
40589;DHT22;26297;49.450;6.640;2024-01-15T09:23:50;8.40;98.80
40589;DHT22;26297;49.450;6.640;2024-01-15T09:27:03;7.70;98.90
40589;DHT22;26297;49.450;6.640;2024-01-15T09:30:24;10.40;99.00
40589;DHT22;26297;49.450;6.640;2024-01-15T09:37:15;8.40;98.50
40589;DHT22;26297;49.450;6.640;2024-01-15T09:40:33;8.70;99.30
40589;DHT22;26297;49.450;6.640;2024-01-15T09:43:48;8.70;98.80
40589;DHT22;26297;49.450;6.640;2024-01-15T09:46:52;8.70;99.40
40589;DHT22;26297;49.450;6.640;2024-01-15T09:49:59;9.50;99.40
40589;DHT22;26297;49.450;6.640;2024-01-15T09:53:03;8.80;99.50
40589;DHT22;26297;49.450;6.640;2024-01-15T09:56:15;8.60;98.90
40589;DHT22;26297;49.450;6.640;2024-01-15T09:59:20;8.70;99.00
40589;DHT22;26297;49.450;6.640;2024-01-15T10:02:33;8.60;99.90
40589;DHT22;26297;49.450;6.640;2024-01-15T10:05:50;8.90;99.50
40589;DHT22;26297;49.450;6.640;2024-01-15T10:08:56;8.00;98.30
40589;DHT22;26297;49.450;6.640;2024-01-15T10:15:54;8.80;98.90
40589;DHT22;26297;49.450;6.640;2024-01-15T10:19:05;8.90;99.70
40589;DHT22;26297;49.450;6.640;2024-01-15T10:22:32;10.90;99.90
40589;DHT22;26297;49.450;6.640;2024-01-15T10:25:47;8.00;98.30
40589;DHT22;26297;49.450;6.640;2024-01-15T10:29:08;8.30;99.70
40589;DHT22;26297;49.450;6.640;2024-01-15T10:32:26;7.80;99.20
40589;DHT22;26297;49.450;6.640;2024-01-15T10:35:33;9.00;99.90
40589;DHT22;26297;49.450;6.640;2024-01-15T10:38:49;8.70;99.90
40589;DHT22;26297;49.450;6.640;2024-01-15T10:46:05;8.80;99.90
40589;DHT22;26297;49.450;6.640;2024-01-15T10:49:12;8.80;99.90
40589;DHT22;26297;49.450;6.640;2024-01-15T10:52:39;9.00;99.90
40589;DHT22;26297;49.450;6.640;2024-01-15T10:56:05;7.90;99.30
40589;DHT22;26297;49.450;6.640;2024-01-15T10:59:35;8.60;99.90
40589;DHT22;26297;49.450;6.640;2024-01-15T11:02:48;8.10;99.40
40589;DHT22;26297;49.450;6.640;2024-01-15T11:06:27;6.90;98.90
40589;DHT22;26297;49.450;6.640;2024-01-15T11:09:29;8.70;99.90
40589;DHT22;26297;49.450;6.640;2024-01-15T11:12:40;10.00;99.90
40589;DHT22;26297;49.450;6.640;2024-01-15T11:19:08;8.80;99.90
40589;DHT22;26297;49.450;6.640;2024-01-15T11:25:38;8.70;99.90
40589;DHT22;26297;49.450;6.640;2024-01-15T11:28:55;9.40;99.90
40589;DHT22;26297;49.450;6.640;2024-01-15T11:32:05;9.20;99.40
40589;DHT22;26297;49.450;6.640;2024-01-15T11:35:14;8.60;99.20
40589;DHT22;26297;49.450;6.640;2024-01-15T11:38:26;10.30;99.90
40589;DHT22;26297;49.450;6.640;2024-01-15T11:41:30;8.80;99.20
40589;DHT22;26297;49.450;6.640;2024-01-15T11:44:33;11.00;99.90
40589;DHT22;26297;49.450;6.640;2024-01-15T11:51:01;9.00;99.90
40589;DHT22;26297;49.450;6.640;2024-01-15T11:54:05;11.10;99.90
40589;DHT22;26297;49.450;6.640;2024-01-15T11:57:14;8.80;99.90
40589;DHT22;26297;49.450;6.640;2024-01-15T12:00:26;8.60;99.90
40589;DHT22;26297;49.450;6.640;2024-01-15T12:07:04;8.60;99.40
40589;DHT22;26297;49.450;6.640;2024-01-15T12:17:02;7.80;98.70
40589;DHT22;26297;49.450;6.640;2024-01-15T12:20:20;10.30;99.90
40589;DHT22;26297;49.450;6.640;2024-01-15T12:23:54;9.30;99.90
40589;DHT22;26297;49.450;6.640;2024-01-15T12:26:58;8.80;99.90
40589;DHT22;26297;49.450;6.640;2024-01-15T12:30:05;8.40;99.60
40589;DHT22;26297;49.450;6.640;2024-01-15T12:41:18;8.70;98.70
40589;DHT22;26297;49.450;6.640;2024-01-15T12:44:28;8.90;98.20
40589;DHT22;26297;49.450;6.640;2024-01-15T12:47:38;7.30;98.10
40589;DHT22;26297;49.450;6.640;2024-01-15T12:51:11;8.00;97.80
40589;DHT22;26297;49.450;6.640;2024-01-15T12:54:18;8.70;99.30
40589;DHT22;26297;49.450;6.640;2024-01-15T12:57:27;8.90;98.90
40589;DHT22;26297;49.450;6.640;2024-01-15T13:00:30;8.80;98.70
40589;DHT22;26297;49.450;6.640;2024-01-15T13:03:36;8.70;99.00
40589;DHT22;26297;49.450;6.640;2024-01-15T13:06:42;11.20;99.40
40589;DHT22;26297;49.450;6.640;2024-01-15T13:13:16;8.10;97.30
40589;DHT22;26297;49.450;6.640;2024-01-15T13:16:22;9.10;98.10
40589;DHT22;26297;49.450;6.640;2024-01-15T13:19:25;9.30;98.80
40589;DHT22;26297;49.450;6.640;2024-01-15T13:22:45;9.10;99.00
40589;DHT22;26297;49.450;6.640;2024-01-15T13:25:54;8.60;98.10
40589;DHT22;26297;49.450;6.640;2024-01-15T13:29:09;9.50;99.90
40589;DHT22;26297;49.450;6.640;2024-01-15T13:32:23;11.10;98.60
40589;DHT22;26297;49.450;6.640;2024-01-15T13:35:47;8.00;98.40
40589;DHT22;26297;49.450;6.640;2024-01-15T13:42:48;8.70;96.80
40589;DHT22;26297;49.450;6.640;2024-01-15T13:45:56;9.00;97.80
40589;DHT22;26297;49.450;6.640;2024-01-15T13:49:36;9.30;97.60
40589;DHT22;26297;49.450;6.640;2024-01-15T13:52:45;7.50;97.40
40589;DHT22;26297;49.450;6.640;2024-01-15T13:55:49;8.30;97.60
40589;DHT22;26297;49.450;6.640;2024-01-15T13:59:03;10.20;99.00
40589;DHT22;26297;49.450;6.640;2024-01-15T14:10:11;8.40;97.20
40589;DHT22;26297;49.450;6.640;2024-01-15T14:13:19;9.00;97.90
40589;DHT22;26297;49.450;6.640;2024-01-15T14:16:41;9.20;98.20
40589;DHT22;26297;49.450;6.640;2024-01-15T14:19:54;9.80;98.40
40589;DHT22;26297;49.450;6.640;2024-01-15T14:22:57;8.80;98.40
40589;DHT22;26297;49.450;6.640;2024-01-15T14:26:02;8.80;98.80
40589;DHT22;26297;49.450;6.640;2024-01-15T14:29:07;8.60;97.80
40589;DHT22;26297;49.450;6.640;2024-01-15T14:32:11;8.90;98.80
40589;DHT22;26297;49.450;6.640;2024-01-15T14:35:38;9.00;98.60
40589;DHT22;26297;49.450;6.640;2024-01-15T15:20:17;7.20;98.20
40589;DHT22;26297;49.450;6.640;2024-01-15T15:23:30;7.10;97.00
40589;DHT22;26297;49.450;6.640;2024-01-15T15:26:45;6.80;97.00
40589;DHT22;26297;49.450;6.640;2024-01-15T15:29:48;8.50;97.10
40589;DHT22;26297;49.450;6.640;2024-01-15T15:32:53;10.10;98.80
40589;DHT22;26297;49.450;6.640;2024-01-15T15:36:02;8.70;99.20
40589;DHT22;26297;49.450;6.640;2024-01-15T15:39:20;9.50;98.50
40589;DHT22;26297;49.450;6.640;2024-01-15T15:42:33;8.80;97.80
40589;DHT22;26297;49.450;6.640;2024-01-15T15:45:48;8.20;97.40
40589;DHT22;26297;49.450;6.640;2024-01-15T15:48:55;7.40;96.80
40589;DHT22;26297;49.450;6.640;2024-01-15T15:52:00;8.90;98.10
40589;DHT22;26297;49.450;6.640;2024-01-15T15:58:36;8.60;96.70
40589;DHT22;26297;49.450;6.640;2024-01-15T16:01:49;10.00;95.80
40589;DHT22;26297;49.450;6.640;2024-01-15T16:04:52;10.90;97.10
40589;DHT22;26297;49.450;6.640;2024-01-15T16:07:56;9.10;97.50
40589;DHT22;26297;49.450;6.640;2024-01-15T16:10:59;8.70;97.40
40589;DHT22;26297;49.450;6.640;2024-01-15T16:17:42;8.70;97.20
40589;DHT22;26297;49.450;6.640;2024-01-15T16:20:45;7.90;97.10
40589;DHT22;26297;49.450;6.640;2024-01-15T16:23:48;8.70;97.10
40589;DHT22;26297;49.450;6.640;2024-01-15T16:26:51;8.70;97.00
40589;DHT22;26297;49.450;6.640;2024-01-15T16:29:54;8.70;96.60
40589;DHT22;26297;49.450;6.640;2024-01-15T16:32:57;8.60;96.70
40589;DHT22;26297;49.450;6.640;2024-01-15T16:36:00;10.40;96.90
40589;DHT22;26297;49.450;6.640;2024-01-15T16:39:04;10.80;96.90
40589;DHT22;26297;49.450;6.640;2024-01-15T16:42:07;8.70;96.80
40589;DHT22;26297;49.450;6.640;2024-01-15T16:45:12;9.80;97.10
40589;DHT22;26297;49.450;6.640;2024-01-15T16:48:15;8.70;97.10
40589;DHT22;26297;49.450;6.640;2024-01-15T16:51:18;8.80;96.70
40589;DHT22;26297;49.450;6.640;2024-01-15T16:54:21;10.30;97.10
40589;DHT22;26297;49.450;6.640;2024-01-15T16:57:25;10.50;97.30
40589;DHT22;26297;49.450;6.640;2024-01-15T17:00:28;11.00;97.20
40589;DHT22;26297;49.450;6.640;2024-01-15T17:03:45;8.50;96.40
40589;DHT22;26297;49.450;6.640;2024-01-15T17:06:48;8.60;96.50
40589;DHT22;26297;49.450;6.640;2024-01-15T17:09:51;10.80;97.40
40589;DHT22;26297;49.450;6.640;2024-01-15T17:13:02;10.40;97.30
40589;DHT22;26297;49.450;6.640;2024-01-15T17:16:06;8.70;96.10
40589;DHT22;26297;49.450;6.640;2024-01-15T17:19:09;8.70;95.90
40589;DHT22;26297;49.450;6.640;2024-01-15T17:22:14;8.70;95.80
40589;DHT22;26297;49.450;6.640;2024-01-15T17:25:23;7.90;95.90
40589;DHT22;26297;49.450;6.640;2024-01-15T17:28:26;8.70;96.40
40589;DHT22;26297;49.450;6.640;2024-01-15T17:31:30;9.40;96.10
40589;DHT22;26297;49.450;6.640;2024-01-15T17:34:33;10.30;96.30
40589;DHT22;26297;49.450;6.640;2024-01-15T17:37:39;9.60;96.10
40589;DHT22;26297;49.450;6.640;2024-01-15T17:40:45;9.10;96.10
40589;DHT22;26297;49.450;6.640;2024-01-15T17:43:50;8.70;95.40
40589;DHT22;26297;49.450;6.640;2024-01-15T17:46:53;9.70;96.10
40589;DHT22;26297;49.450;6.640;2024-01-15T17:49:57;10.10;95.70
40589;DHT22;26297;49.450;6.640;2024-01-15T17:53:03;10.40;96.80
40589;DHT22;26297;49.450;6.640;2024-01-15T17:56:15;8.70;95.80
40589;DHT22;26297;49.450;6.640;2024-01-15T17:59:18;9.00;96.20
40589;DHT22;26297;49.450;6.640;2024-01-15T18:02:21;9.50;96.30
40589;DHT22;26297;49.450;6.640;2024-01-15T18:05:24;11.20;97.40
40589;DHT22;26297;49.450;6.640;2024-01-15T18:08:35;8.90;96.20
40589;DHT22;26297;49.450;6.640;2024-01-15T18:11:40;8.80;95.70
40589;DHT22;26297;49.450;6.640;2024-01-15T18:14:43;8.70;95.30
40589;DHT22;26297;49.450;6.640;2024-01-15T18:17:46;8.80;95.50
40589;DHT22;26297;49.450;6.640;2024-01-15T18:20:49;8.60;95.00
40589;DHT22;26297;49.450;6.640;2024-01-15T18:28:01;10.50;94.50
40589;DHT22;26297;49.450;6.640;2024-01-15T18:31:17;8.70;95.10
40589;DHT22;26297;49.450;6.640;2024-01-15T18:34:20;8.70;95.30
40589;DHT22;26297;49.450;6.640;2024-01-15T18:37:24;8.80;94.90
40589;DHT22;26297;49.450;6.640;2024-01-15T18:40:28;7.60;95.20
40589;DHT22;26297;49.450;6.640;2024-01-15T18:43:37;9.10;96.00
40589;DHT22;26297;49.450;6.640;2024-01-15T18:46:40;8.80;95.70
40589;DHT22;26297;49.450;6.640;2024-01-15T18:49:46;8.90;96.30
40589;DHT22;26297;49.450;6.640;2024-01-15T18:52:49;8.80;95.90
40589;DHT22;26297;49.450;6.640;2024-01-15T18:55:53;9.00;96.00
40589;DHT22;26297;49.450;6.640;2024-01-15T18:58:58;9.20;95.70
40589;DHT22;26297;49.450;6.640;2024-01-15T19:02:02;9.30;96.30
40589;DHT22;26297;49.450;6.640;2024-01-15T19:05:05;9.20;96.40
40589;DHT22;26297;49.450;6.640;2024-01-15T19:08:08;8.70;96.00
40589;DHT22;26297;49.450;6.640;2024-01-15T19:11:11;9.10;96.70
40589;DHT22;26297;49.450;6.640;2024-01-15T19:14:14;8.80;96.60
40589;DHT22;26297;49.450;6.640;2024-01-15T19:17:18;11.20;97.40
40589;DHT22;26297;49.450;6.640;2024-01-15T20:15:17;8.80;97.80
40589;DHT22;26297;49.450;6.640;2024-01-15T20:18:21;10.30;98.10
40589;DHT22;26297;49.450;6.640;2024-01-15T20:21:25;9.70;98.10
40589;DHT22;26297;49.450;6.640;2024-01-15T20:24:28;10.60;97.50
40589;DHT22;26297;49.450;6.640;2024-01-15T20:27:32;8.80;98.20
40589;DHT22;26297;49.450;6.640;2024-01-15T20:30:35;9.40;97.70
40589;DHT22;26297;49.450;6.640;2024-01-15T20:33:38;10.50;97.80
40589;DHT22;26297;49.450;6.640;2024-01-15T20:36:42;10.70;98.00
40589;DHT22;26297;49.450;6.640;2024-01-15T20:39:45;9.00;97.60
40589;DHT22;26297;49.450;6.640;2024-01-15T20:42:48;9.00;97.50
40589;DHT22;26297;49.450;6.640;2024-01-15T20:45:52;6.40;96.30
40589;DHT22;26297;49.450;6.640;2024-01-15T20:48:55;9.60;97.80
40589;DHT22;26297;49.450;6.640;2024-01-15T20:51:58;9.70;97.80
40589;DHT22;26297;49.450;6.640;2024-01-15T20:55:01;8.80;97.30
40589;DHT22;26297;49.450;6.640;2024-01-15T20:58:07;8.80;97.50
40589;DHT22;26297;49.450;6.640;2024-01-15T21:01:11;8.80;97.30
40589;DHT22;26297;49.450;6.640;2024-01-15T21:04:14;11.00;97.50
40589;DHT22;26297;49.450;6.640;2024-01-15T21:07:17;8.80;97.60
40589;DHT22;26297;49.450;6.640;2024-01-15T21:10:20;8.80;97.00
40589;DHT22;26297;49.450;6.640;2024-01-15T21:13:24;8.80;97.30
40589;DHT22;26297;49.450;6.640;2024-01-15T21:16:27;8.80;97.00
40589;DHT22;26297;49.450;6.640;2024-01-15T21:19:30;11.40;97.50
40589;DHT22;26297;49.450;6.640;2024-01-15T21:22:34;8.80;96.80
40589;DHT22;26297;49.450;6.640;2024-01-15T21:25:37;9.60;97.00
40589;DHT22;26297;49.450;6.640;2024-01-15T21:28:41;8.80;96.70
40589;DHT22;26297;49.450;6.640;2024-01-15T21:31:43;8.80;96.40
40589;DHT22;26297;49.450;6.640;2024-01-15T21:34:47;11.40;97.30
40589;DHT22;26297;49.450;6.640;2024-01-15T21:37:51;10.30;96.80
40589;DHT22;26297;49.450;6.640;2024-01-15T21:40:54;8.80;97.10
40589;DHT22;26297;49.450;6.640;2024-01-15T21:43:57;10.30;97.00
40589;DHT22;26297;49.450;6.640;2024-01-15T21:47:00;10.20;96.80
40589;DHT22;26297;49.450;6.640;2024-01-15T21:50:07;8.80;97.40
40589;DHT22;26297;49.450;6.640;2024-01-15T21:53:11;8.80;97.00
40589;DHT22;26297;49.450;6.640;2024-01-15T21:56:18;8.80;96.90
40589;DHT22;26297;49.450;6.640;2024-01-15T21:59:21;9.60;97.40
40589;DHT22;26297;49.450;6.640;2024-01-15T22:02:24;9.20;97.30
40589;DHT22;26297;49.450;6.640;2024-01-15T22:05:27;9.30;97.40
40589;DHT22;26297;49.450;6.640;2024-01-15T22:08:30;8.80;97.40
40589;DHT22;26297;49.450;6.640;2024-01-15T22:11:33;8.80;97.20
40589;DHT22;26297;49.450;6.640;2024-01-15T22:14:37;9.70;97.70
40589;DHT22;26297;49.450;6.640;2024-01-15T22:17:40;8.80;97.70
40589;DHT22;26297;49.450;6.640;2024-01-15T22:20:43;10.30;97.60
40589;DHT22;26297;49.450;6.640;2024-01-15T22:23:46;9.50;97.70
40589;DHT22;26297;49.450;6.640;2024-01-15T22:26:49;11.00;98.00
40589;DHT22;26297;49.450;6.640;2024-01-15T22:29:53;11.00;97.70
40589;DHT22;26297;49.450;6.640;2024-01-15T22:32:56;8.80;97.30
40589;DHT22;26297;49.450;6.640;2024-01-15T22:35:59;8.80;97.00
40589;DHT22;26297;49.450;6.640;2024-01-15T22:39:02;10.60;96.40
40589;DHT22;26297;49.450;6.640;2024-01-15T22:42:05;8.80;97.00
40589;DHT22;26297;49.450;6.640;2024-01-15T22:45:08;8.80;97.50
40589;DHT22;26297;49.450;6.640;2024-01-15T22:48:12;8.80;97.80
40589;DHT22;26297;49.450;6.640;2024-01-15T22:51:15;8.80;97.40
40589;DHT22;26297;49.450;6.640;2024-01-15T22:54:18;8.90;97.50
40589;DHT22;26297;49.450;6.640;2024-01-15T22:57:21;10.80;97.40
40589;DHT22;26297;49.450;6.640;2024-01-15T23:00:26;8.80;97.20
40589;DHT22;26297;49.450;6.640;2024-01-15T23:03:31;9.70;98.00
40589;DHT22;26297;49.450;6.640;2024-01-15T23:06:34;10.30;97.80